PWSweather.com
Personal Weather Stations
Station Observations
SPARKSRC
St. Petersburg, FL 33716

St. Petersburg, FL 33716

Lat: 27.876101, Lon: -82.657194

Elevation: 13

Station Type: Zephyr PWS-1000TD

High Low Average
Temperature 93.7°F34.3°C 78.3°F25.7°C 82.1°F27.8°C
Dew Point 80.1°F26.7°C 71.1°F21.7°C 73.7°F23.2°C
Winds 8.3 mph 13.4 kmh Calm Calm 4.0 mph S6.4 kmh S
Wind Gusts 13.6 mph21.9 kmh 3.1 mph5.0 kmh 8.0 mph12.9 kmh
Humidity 81% 64% 76%
Pressure 29.93 in1013.5 mb 29.81 in1009.5 mb -
Precipitation 0.06 in1.5 mm - -
Hour Temp Dew Point Humidity Winds Wind Gusts Pressure Precip Precip Rate Daily Precip Total
12:00 AM 81.5°F27.5°C 72.5°F22.5°C 74% 2.2 mph SE3.5 kmh SE 9.8 mph15.8 kmh 29.90 in1012.5 mb 0.00 in0.0 mm 0.00 in0.0 mm 0.00 in0.0 mm
12:05 AM 81.5°F27.5°C 72.5°F22.5°C 74% 5.4 mph SE8.7 kmh SE 9.2 mph14.8 kmh 29.89 in1012.2 mb 0.00 in0.0 mm 0.00 in0.0 mm 0.00 in0.0 mm
12:10 AM 81.5°F27.5°C 72.5°F22.5°C 74% 3.1 mph SE5.0 kmh SE 7.6 mph12.2 kmh 29.89 in1012.2 mb 0.00 in0.0 mm 0.00 in0.0 mm 0.00 in0.0 mm
12:15 AM 81.3°F27.4°C 72.3°F22.4°C 74% 5.4 mph SE8.7 kmh SE 8.3 mph13.4 kmh 29.90 in1012.5 mb 0.00 in0.0 mm 0.00 in0.0 mm 0.00 in0.0 mm
12:20 AM 81.5°F27.5°C 72.9°F22.7°C 75% 7.6 mph SE12.2 kmh SE 9.8 mph15.8 kmh 29.89 in1012.2 mb 0.00 in0.0 mm 0.00 in0.0 mm 0.00 in0.0 mm
12:25 AM 81.3°F27.4°C 72.7°F22.6°C 75% 5.4 mph SE8.7 kmh SE 13.0 mph20.9 kmh 29.89 in1012.2 mb 0.00 in0.0 mm 0.00 in0.0 mm 0.00 in0.0 mm
12:30 AM 81.3°F27.4°C 72.7°F22.6°C 75% 6.9 mph SE11.1 kmh SE 13.0 mph20.9 kmh 29.90 in1012.5 mb 0.00 in0.0 mm 0.00 in0.0 mm 0.00 in0.0 mm
12:35 AM 81.1°F27.3°C 72.5°F22.5°C 75% 4.5 mph SE7.2 kmh SE 13.0 mph20.9 kmh 29.89 in1012.2 mb 0.00 in0.0 mm 0.00 in0.0 mm 0.00 in0.0 mm
12:40 AM 81.1°F27.3°C 72.5°F22.5°C 75% 5.4 mph SE8.7 kmh SE 9.8 mph15.8 kmh 29.90 in1012.5 mb 0.00 in0.0 mm 0.00 in0.0 mm 0.00 in0.0 mm
12:45 AM 81.1°F27.3°C 72.5°F22.5°C 75% 6.0 mph SSE9.7 kmh SSE 9.8 mph15.8 kmh 29.90 in1012.5 mb 0.00 in0.0 mm 0.00 in0.0 mm 0.00 in0.0 mm
12:50 AM 81.1°F27.3°C 72.5°F22.5°C 75% 5.4 mph S8.7 kmh S 9.8 mph15.8 kmh 29.90 in1012.5 mb 0.00 in0.0 mm 0.00 in0.0 mm 0.00 in0.0 mm
12:55 AM 81.0°F27.2°C 72.3°F22.4°C 75% 6.9 mph S11.1 kmh S 10.7 mph17.2 kmh 29.90 in1012.5 mb 0.00 in0.0 mm 0.00 in0.0 mm 0.00 in0.0 mm
01:00 AM 81.0°F27.2°C 72.3°F22.4°C 75% 3.1 mph S5.0 kmh S 10.7 mph17.2 kmh 29.89 in1012.2 mb 0.00 in0.0 mm 0.00 in0.0 mm 0.00 in0.0 mm
01:05 AM 80.8°F27.1°C 72.2°F22.3°C 75% 3.1 mph S5.0 kmh S 9.2 mph14.8 kmh 29.89 in1012.2 mb 0.00 in0.0 mm 0.00 in0.0 mm 0.00 in0.0 mm
01:10 AM 80.6°F27.0°C 72.0°F22.2°C 75% 3.1 mph S5.0 kmh S 7.6 mph12.2 kmh 29.89 in1012.2 mb 0.00 in0.0 mm 0.00 in0.0 mm 0.00 in0.0 mm
01:15 AM 80.6°F27.0°C 72.0°F22.2°C 75% 3.8 mph S6.1 kmh S 4.5 mph7.2 kmh 29.88 in1011.9 mb 0.00 in0.0 mm 0.00 in0.0 mm 0.00 in0.0 mm
01:20 AM 80.4°F26.9°C 71.8°F22.1°C 75% 3.1 mph S5.0 kmh S 4.5 mph7.2 kmh 29.87 in1011.5 mb 0.00 in0.0 mm 0.00 in0.0 mm 0.00 in0.0 mm
01:25 AM 80.6°F27.0°C 72.0°F22.2°C 75% 1.6 mph SSE2.6 kmh SSE 5.4 mph8.7 kmh 29.88 in1011.9 mb 0.00 in0.0 mm 0.00 in0.0 mm 0.00 in0.0 mm
01:30 AM 80.6°F27.0°C 72.0°F22.2°C 75% 3.8 mph SE6.1 kmh SE 6.0 mph9.7 kmh 29.87 in1011.5 mb 0.00 in0.0 mm 0.00 in0.0 mm 0.00 in0.0 mm
01:35 AM 80.6°F27.0°C 72.0°F22.2°C 75% 2.2 mph SSE3.5 kmh SSE 6.0 mph9.7 kmh 29.87 in1011.5 mb 0.00 in0.0 mm 0.00 in0.0 mm 0.00 in0.0 mm
01:40 AM 80.4°F26.9°C 71.8°F22.1°C 75% 2.2 mph SSE3.5 kmh SSE 6.0 mph9.7 kmh 29.87 in1011.5 mb 0.00 in0.0 mm 0.00 in0.0 mm 0.00 in0.0 mm
01:45 AM 80.4°F26.9°C 71.8°F22.1°C 75% 1.6 mph SSE2.6 kmh SSE 6.0 mph9.7 kmh 29.87 in1011.5 mb 0.00 in0.0 mm 0.00 in0.0 mm 0.00 in0.0 mm
01:50 AM 80.2°F26.8°C 71.6°F22.0°C 75% 2.2 mph S3.5 kmh S 3.8 mph6.1 kmh 29.87 in1011.5 mb 0.00 in0.0 mm 0.00 in0.0 mm 0.00 in0.0 mm
01:55 AM 80.2°F26.8°C 71.6°F22.0°C 75% 3.8 mph S6.1 kmh S 5.4 mph8.7 kmh 29.87 in1011.5 mb 0.00 in0.0 mm 0.00 in0.0 mm 0.00 in0.0 mm
02:00 AM 80.1°F26.7°C 71.5°F21.9°C 75% 3.1 mph S5.0 kmh S 5.4 mph8.7 kmh 29.86 in1011.2 mb 0.00 in0.0 mm 0.00 in0.0 mm 0.00 in0.0 mm
02:05 AM 79.9°F26.6°C 71.3°F21.8°C 75% 3.1 mph S5.0 kmh S 4.5 mph7.2 kmh 29.86 in1011.2 mb 0.00 in0.0 mm 0.00 in0.0 mm 0.00 in0.0 mm
02:10 AM 79.7°F26.5°C 71.1°F21.7°C 75% 3.1 mph S5.0 kmh S 4.5 mph7.2 kmh 29.86 in1011.2 mb 0.00 in0.0 mm 0.00 in0.0 mm 0.00 in0.0 mm
02:15 AM 79.9°F26.6°C 71.3°F21.8°C 75% 4.5 mph S7.2 kmh S 6.0 mph9.7 kmh 29.86 in1011.2 mb 0.00 in0.0 mm 0.00 in0.0 mm 0.00 in0.0 mm
02:20 AM 79.5°F26.4°C 71.3°F21.8°C 76% 6.0 mph S9.7 kmh S 6.9 mph11.1 kmh 29.86 in1011.2 mb 0.00 in0.0 mm 0.00 in0.0 mm 0.00 in0.0 mm
02:25 AM 79.7°F26.5°C 71.5°F21.9°C 76% 5.4 mph S8.7 kmh S 6.9 mph11.1 kmh 29.86 in1011.2 mb 0.00 in0.0 mm 0.00 in0.0 mm 0.00 in0.0 mm
02:30 AM 79.7°F26.5°C 71.5°F21.9°C 76% 5.4 mph S8.7 kmh S 9.2 mph14.8 kmh 29.85 in1010.8 mb 0.00 in0.0 mm 0.00 in0.0 mm 0.00 in0.0 mm
02:35 AM 79.7°F26.5°C 71.9°F22.2°C 77% 4.5 mph SSE7.2 kmh SSE 9.2 mph14.8 kmh 29.85 in1010.8 mb 0.00 in0.0 mm 0.00 in0.0 mm 0.00 in0.0 mm
02:40 AM 79.7°F26.5°C 71.9°F22.2°C 77% 4.5 mph SE7.2 kmh SE 9.2 mph14.8 kmh 29.84 in1010.5 mb 0.00 in0.0 mm 0.00 in0.0 mm 0.00 in0.0 mm
02:45 AM 79.5°F26.4°C 71.7°F22.1°C 77% 4.5 mph SSE7.2 kmh SSE 8.3 mph13.4 kmh 29.85 in1010.8 mb 0.00 in0.0 mm 0.00 in0.0 mm 0.00 in0.0 mm
02:50 AM 79.5°F26.4°C 71.7°F22.1°C 77% 6.9 mph S11.1 kmh S 9.2 mph14.8 kmh 29.84 in1010.5 mb 0.00 in0.0 mm 0.00 in0.0 mm 0.00 in0.0 mm
02:55 AM 79.5°F26.4°C 71.7°F22.1°C 77% 5.4 mph S8.7 kmh S 9.2 mph14.8 kmh 29.83 in1010.2 mb 0.00 in0.0 mm 0.00 in0.0 mm 0.00 in0.0 mm
03:00 AM 79.5°F26.4°C 71.7°F22.1°C 77% 4.5 mph S7.2 kmh S 9.2 mph14.8 kmh 29.84 in1010.5 mb 0.00 in0.0 mm 0.00 in0.0 mm 0.00 in0.0 mm
03:05 AM 79.3°F26.3°C 71.9°F22.2°C 78% 3.8 mph S6.1 kmh S 6.9 mph11.1 kmh 29.84 in1010.5 mb 0.00 in0.0 mm 0.00 in0.0 mm 0.00 in0.0 mm
03:10 AM 79.3°F26.3°C 71.9°F22.2°C 78% 2.2 mph S3.5 kmh S 6.9 mph11.1 kmh 29.84 in1010.5 mb 0.00 in0.0 mm 0.00 in0.0 mm 0.00 in0.0 mm
03:15 AM 79.3°F26.3°C 71.6°F22.0°C 77% 3.1 mph SE5.0 kmh SE 5.4 mph8.7 kmh 29.84 in1010.5 mb 0.00 in0.0 mm 0.00 in0.0 mm 0.00 in0.0 mm
03:20 AM 79.3°F26.3°C 71.9°F22.2°C 78% 2.2 mph SE3.5 kmh SE 6.0 mph9.7 kmh 29.83 in1010.2 mb 0.00 in0.0 mm 0.00 in0.0 mm 0.00 in0.0 mm
03:25 AM 79.3°F26.3°C 71.9°F22.2°C 78% 3.1 mph SE5.0 kmh SE 6.0 mph9.7 kmh 29.82 in1009.8 mb 0.00 in0.0 mm 0.00 in0.0 mm 0.00 in0.0 mm
03:30 AM 79.2°F26.2°C 71.8°F22.1°C 78% 3.8 mph SSE6.1 kmh SSE 6.0 mph9.7 kmh 29.82 in1009.8 mb 0.00 in0.0 mm 0.00 in0.0 mm 0.00 in0.0 mm
03:35 AM 79.3°F26.3°C 71.9°F22.2°C 78% 3.8 mph SSE6.1 kmh SSE 6.0 mph9.7 kmh 29.82 in1009.8 mb 0.00 in0.0 mm 0.00 in0.0 mm 0.00 in0.0 mm
03:40 AM 79.3°F26.3°C 71.9°F22.2°C 78% 3.1 mph SE5.0 kmh SE 6.0 mph9.7 kmh 29.82 in1009.8 mb 0.00 in0.0 mm 0.00 in0.0 mm 0.00 in0.0 mm
03:45 AM 79.3°F26.3°C 71.9°F22.2°C 78% 3.1 mph SE5.0 kmh SE 6.9 mph11.1 kmh 29.82 in1009.8 mb 0.00 in0.0 mm 0.00 in0.0 mm 0.00 in0.0 mm
03:50 AM 79.3°F26.3°C 71.9°F22.2°C 78% 3.1 mph SSE5.0 kmh SSE 6.9 mph11.1 kmh 29.82 in1009.8 mb 0.00 in0.0 mm 0.00 in0.0 mm 0.00 in0.0 mm
03:55 AM 79.5°F26.4°C 72.1°F22.3°C 78% 3.8 mph SSE6.1 kmh SSE 7.6 mph12.2 kmh 29.81 in1009.5 mb 0.00 in0.0 mm 0.00 in0.0 mm 0.00 in0.0 mm
04:00 AM 79.5°F26.4°C 72.1°F22.3°C 78% 3.8 mph S6.1 kmh S 7.6 mph12.2 kmh 29.82 in1009.8 mb 0.00 in0.0 mm 0.00 in0.0 mm 0.00 in0.0 mm
04:05 AM 79.3°F26.3°C 71.9°F22.2°C 78% 3.1 mph S5.0 kmh S 6.0 mph9.7 kmh 29.82 in1009.8 mb 0.00 in0.0 mm 0.00 in0.0 mm 0.00 in0.0 mm
04:10 AM 79.5°F26.4°C 72.1°F22.3°C 78% 3.8 mph S6.1 kmh S 5.4 mph8.7 kmh 29.83 in1010.2 mb 0.00 in0.0 mm 0.00 in0.0 mm 0.00 in0.0 mm
04:15 AM 79.3°F26.3°C 71.9°F22.2°C 78% 3.8 mph S6.1 kmh S 5.4 mph8.7 kmh 29.82 in1009.8 mb 0.00 in0.0 mm 0.00 in0.0 mm 0.00 in0.0 mm
04:20 AM 79.3°F26.3°C 71.9°F22.2°C 78% 4.5 mph SW7.2 kmh SW 5.4 mph8.7 kmh 29.82 in1009.8 mb 0.00 in0.0 mm 0.00 in0.0 mm 0.00 in0.0 mm
04:25 AM 79.2°F26.2°C 71.8°F22.1°C 78% 3.8 mph SW6.1 kmh SW 6.0 mph9.7 kmh 29.82 in1009.8 mb 0.00 in0.0 mm 0.00 in0.0 mm 0.00 in0.0 mm
04:30 AM 79.2°F26.2°C 71.8°F22.1°C 78% 3.1 mph SW5.0 kmh SW 6.0 mph9.7 kmh 29.82 in1009.8 mb 0.00 in0.0 mm 0.00 in0.0 mm 0.00 in0.0 mm
04:35 AM 79.0°F26.1°C 71.6°F22.0°C 78% 2.2 mph SSW3.5 kmh SSW 5.4 mph8.7 kmh 29.83 in1010.2 mb 0.00 in0.0 mm 0.00 in0.0 mm 0.00 in0.0 mm
04:40 AM 78.8°F26.0°C 71.4°F21.9°C 78% 3.1 mph SSW5.0 kmh SSW 4.5 mph7.2 kmh 29.82 in1009.8 mb 0.00 in0.0 mm 0.00 in0.0 mm 0.00 in0.0 mm
04:45 AM 78.6°F25.9°C 71.2°F21.8°C 78% 3.1 mph S5.0 kmh S 3.8 mph6.1 kmh 29.82 in1009.8 mb 0.00 in0.0 mm 0.00 in0.0 mm 0.00 in0.0 mm
04:50 AM 78.6°F25.9°C 71.2°F21.8°C 78% 3.8 mph S6.1 kmh S 4.5 mph7.2 kmh 29.82 in1009.8 mb 0.00 in0.0 mm 0.00 in0.0 mm 0.00 in0.0 mm
04:55 AM 78.8°F26.0°C 71.8°F22.1°C 79% 4.5 mph S7.2 kmh S 6.0 mph9.7 kmh 29.82 in1009.8 mb 0.00 in0.0 mm 0.00 in0.0 mm 0.00 in0.0 mm
05:00 AM 78.6°F25.9°C 71.6°F22.0°C 79% 5.4 mph S8.7 kmh S 6.9 mph11.1 kmh 29.82 in1009.8 mb 0.00 in0.0 mm 0.00 in0.0 mm 0.00 in0.0 mm
05:05 AM 78.6°F25.9°C 71.6°F22.0°C 79% 4.5 mph S7.2 kmh S 6.9 mph11.1 kmh 29.82 in1009.8 mb 0.00 in0.0 mm 0.00 in0.0 mm 0.00 in0.0 mm
05:10 AM 78.4°F25.8°C 71.4°F21.9°C 79% 6.9 mph SSE11.1 kmh SSE 9.8 mph15.8 kmh 29.81 in1009.5 mb 0.00 in0.0 mm 0.00 in0.0 mm 0.00 in0.0 mm
05:15 AM 78.6°F25.9°C 72.0°F22.2°C 80% 6.0 mph SSE9.7 kmh SSE 10.7 mph17.2 kmh 29.81 in1009.5 mb 0.00 in0.0 mm 0.00 in0.0 mm 0.00 in0.0 mm
05:20 AM 79.0°F26.1°C 72.3°F22.4°C 80% 6.0 mph SSE9.7 kmh SSE 10.7 mph17.2 kmh 29.81 in1009.5 mb 0.00 in0.0 mm 0.00 in0.0 mm 0.00 in0.0 mm
05:25 AM 79.0°F26.1°C 72.3°F22.4°C 80% 7.6 mph S12.2 kmh S 10.7 mph17.2 kmh 29.81 in1009.5 mb 0.00 in0.0 mm 0.00 in0.0 mm 0.00 in0.0 mm
05:30 AM 79.0°F26.1°C 72.3°F22.4°C 80% 6.9 mph S11.1 kmh S 10.7 mph17.2 kmh 29.82 in1009.8 mb 0.00 in0.0 mm 0.00 in0.0 mm 0.00 in0.0 mm
05:35 AM 79.2°F26.2°C 72.5°F22.5°C 80% 5.4 mph S8.7 kmh S 9.8 mph15.8 kmh 29.82 in1009.8 mb 0.00 in0.0 mm 0.00 in0.0 mm 0.00 in0.0 mm
05:40 AM 79.2°F26.2°C 72.5°F22.5°C 80% 5.4 mph S8.7 kmh S 9.8 mph15.8 kmh 29.83 in1010.2 mb 0.00 in0.0 mm 0.00 in0.0 mm 0.00 in0.0 mm
05:45 AM 79.2°F26.2°C 72.5°F22.5°C 80% 1.6 mph S2.6 kmh S 9.2 mph14.8 kmh 29.83 in1010.2 mb 0.00 in0.0 mm 0.00 in0.0 mm 0.00 in0.0 mm
05:50 AM 78.8°F26.0°C 72.2°F22.3°C 80% Calm Calm 6.9 mph11.1 kmh 29.83 in1010.2 mb 0.00 in0.0 mm 0.00 in0.0 mm 0.00 in0.0 mm
05:55 AM 78.6°F25.9°C 71.6°F22.0°C 79% 1.6 mph S2.6 kmh S 3.1 mph5.0 kmh 29.83 in1010.2 mb 0.00 in0.0 mm 0.00 in0.0 mm 0.00 in0.0 mm
06:00 AM 78.8°F26.0°C 71.8°F22.1°C 79% 1.6 mph S2.6 kmh S 3.1 mph5.0 kmh 29.83 in1010.2 mb 0.00 in0.0 mm 0.00 in0.0 mm 0.00 in0.0 mm
06:05 AM 78.6°F25.9°C 71.6°F22.0°C 79% 2.2 mph SSE3.5 kmh SSE 4.5 mph7.2 kmh 29.84 in1010.5 mb 0.00 in0.0 mm 0.00 in0.0 mm 0.00 in0.0 mm
06:10 AM 78.6°F25.9°C 71.6°F22.0°C 79% 0.7 mph S1.1 kmh S 4.5 mph7.2 kmh 29.84 in1010.5 mb 0.00 in0.0 mm 0.00 in0.0 mm 0.00 in0.0 mm
06:15 AM 78.3°F25.7°C 71.3°F21.8°C 79% 0.7 mph SSW1.1 kmh SSW 3.8 mph6.1 kmh 29.84 in1010.5 mb 0.00 in0.0 mm 0.00 in0.0 mm 0.00 in0.0 mm
06:20 AM 78.3°F25.7°C 71.3°F21.8°C 79% 1.6 mph S2.6 kmh S 3.1 mph5.0 kmh 29.84 in1010.5 mb 0.00 in0.0 mm 0.00 in0.0 mm 0.00 in0.0 mm
06:25 AM 78.3°F25.7°C 71.3°F21.8°C 79% 1.6 mph SE2.6 kmh SE 3.1 mph5.0 kmh 29.84 in1010.5 mb 0.00 in0.0 mm 0.00 in0.0 mm 0.00 in0.0 mm
06:30 AM 78.3°F25.7°C 71.3°F21.8°C 79% 1.6 mph SE2.6 kmh SE 3.1 mph5.0 kmh 29.85 in1010.8 mb 0.00 in0.0 mm 0.00 in0.0 mm 0.00 in0.0 mm
06:35 AM 78.3°F25.7°C 71.3°F21.8°C 79% 1.6 mph SE2.6 kmh SE 3.1 mph5.0 kmh 29.85 in1010.8 mb 0.00 in0.0 mm 0.00 in0.0 mm 0.00 in0.0 mm
06:40 AM 78.3°F25.7°C 71.3°F21.8°C 79% 4.5 mph SE7.2 kmh SE 5.4 mph8.7 kmh 29.85 in1010.8 mb 0.00 in0.0 mm 0.00 in0.0 mm 0.00 in0.0 mm
06:45 AM 78.3°F25.7°C 71.3°F21.8°C 79% 3.8 mph ESE6.1 kmh ESE 6.0 mph9.7 kmh 29.84 in1010.5 mb 0.00 in0.0 mm 0.00 in0.0 mm 0.00 in0.0 mm
06:50 AM 78.4°F25.8°C 71.4°F21.9°C 79% 2.2 mph E3.5 kmh E 6.0 mph9.7 kmh 29.85 in1010.8 mb 0.00 in0.0 mm 0.00 in0.0 mm 0.00 in0.0 mm
06:55 AM 78.4°F25.8°C 71.4°F21.9°C 79% 2.2 mph E3.5 kmh E 5.4 mph8.7 kmh 29.85 in1010.8 mb 0.00 in0.0 mm 0.00 in0.0 mm 0.00 in0.0 mm
07:00 AM 78.6°F25.9°C 72.0°F22.2°C 80% 2.2 mph ENE3.5 kmh ENE 5.4 mph8.7 kmh 29.85 in1010.8 mb 0.00 in0.0 mm 0.00 in0.0 mm 0.00 in0.0 mm
07:05 AM 78.6°F25.9°C 72.0°F22.2°C 80% 1.6 mph ENE2.6 kmh ENE 5.4 mph8.7 kmh 29.85 in1010.8 mb 0.00 in0.0 mm 0.00 in0.0 mm 0.00 in0.0 mm
07:10 AM 78.6°F25.9°C 72.0°F22.2°C 80% 3.8 mph E6.1 kmh E 5.4 mph8.7 kmh 29.85 in1010.8 mb 0.00 in0.0 mm 0.00 in0.0 mm 0.00 in0.0 mm
07:15 AM 78.6°F25.9°C 71.6°F22.0°C 79% 3.1 mph E5.0 kmh E 6.9 mph11.1 kmh 29.85 in1010.8 mb 0.00 in0.0 mm 0.00 in0.0 mm 0.00 in0.0 mm
07:20 AM 79.2°F26.2°C 72.1°F22.3°C 79% 4.5 mph ESE7.2 kmh ESE 8.3 mph13.4 kmh 29.86 in1011.2 mb 0.00 in0.0 mm 0.00 in0.0 mm 0.00 in0.0 mm
07:25 AM 79.3°F26.3°C 72.3°F22.4°C 79% 4.5 mph E7.2 kmh E 8.3 mph13.4 kmh 29.85 in1010.8 mb 0.00 in0.0 mm 0.00 in0.0 mm 0.00 in0.0 mm
07:30 AM 79.7°F26.5°C 72.7°F22.6°C 79% 3.1 mph E5.0 kmh E 10.7 mph17.2 kmh 29.86 in1011.2 mb 0.00 in0.0 mm 0.00 in0.0 mm 0.00 in0.0 mm
07:35 AM 79.9°F26.6°C 72.8°F22.7°C 79% 7.6 mph NE12.2 kmh NE 13.6 mph21.9 kmh 29.87 in1011.5 mb 0.00 in0.0 mm 0.00 in0.0 mm 0.00 in0.0 mm
07:40 AM 79.9°F26.6°C 72.5°F22.5°C 78% 6.0 mph WNW9.7 kmh WNW 13.6 mph21.9 kmh 29.89 in1012.2 mb 0.00 in0.0 mm 0.00 in0.0 mm 0.00 in0.0 mm
07:45 AM 79.5°F26.4°C 72.1°F22.3°C 78% 7.6 mph WNW12.2 kmh WNW 11.4 mph18.3 kmh 29.88 in1011.9 mb 0.02 in0.5 mm 0.24 in6.1 mm 0.02 in0.5 mm
07:50 AM 79.2°F26.2°C 71.8°F22.1°C 78% 3.8 mph NW6.1 kmh NW 11.4 mph18.3 kmh 29.88 in1011.9 mb 0.05 in1.3 mm 0.36 in9.1 mm 0.05 in1.3 mm
07:55 AM 79.2°F26.2°C 71.8°F22.1°C 78% 3.8 mph NW6.1 kmh NW 11.4 mph18.3 kmh 29.87 in1011.5 mb 0.05 in1.3 mm 0.00 in0.0 mm 0.05 in1.3 mm
08:00 AM 79.2°F26.2°C 71.8°F22.1°C 78% 3.8 mph NW6.1 kmh NW 10.7 mph17.2 kmh 29.88 in1011.9 mb 0.05 in1.3 mm 0.00 in0.0 mm 0.05 in1.3 mm
08:05 AM 79.2°F26.2°C 71.8°F22.1°C 78% 3.8 mph NW6.1 kmh NW 10.7 mph17.2 kmh 29.88 in1011.9 mb 0.05 in1.3 mm 0.00 in0.0 mm 0.05 in1.3 mm
08:10 AM 79.2°F26.2°C 71.8°F22.1°C 78% 3.8 mph NW6.1 kmh NW 10.7 mph17.2 kmh 29.88 in1011.9 mb 0.05 in1.3 mm 0.00 in0.0 mm 0.05 in1.3 mm
08:15 AM 79.2°F26.2°C 71.8°F22.1°C 78% 3.8 mph NW6.1 kmh NW 10.7 mph17.2 kmh 29.88 in1011.9 mb 0.05 in1.3 mm 0.00 in0.0 mm 0.05 in1.3 mm
08:20 AM 79.2°F26.2°C 71.8°F22.1°C 78% 3.8 mph NW6.1 kmh NW 10.7 mph17.2 kmh 29.88 in1011.9 mb 0.05 in1.3 mm 0.00 in0.0 mm 0.05 in1.3 mm
08:25 AM 79.2°F26.2°C 71.8°F22.1°C 78% 3.8 mph NW6.1 kmh NW 10.7 mph17.2 kmh 29.86 in1011.2 mb 0.05 in1.3 mm 0.00 in0.0 mm 0.05 in1.3 mm
08:30 AM 79.2°F26.2°C 71.8°F22.1°C 78% 3.8 mph NW6.1 kmh NW 10.7 mph17.2 kmh 29.86 in1011.2 mb 0.05 in1.3 mm 0.00 in0.0 mm 0.05 in1.3 mm
08:35 AM 79.2°F26.2°C 71.8°F22.1°C 78% 3.8 mph NW6.1 kmh NW 10.7 mph17.2 kmh 29.87 in1011.5 mb 0.05 in1.3 mm 0.00 in0.0 mm 0.05 in1.3 mm
08:40 AM 79.2°F26.2°C 71.8°F22.1°C 78% 3.8 mph NW6.1 kmh NW 10.7 mph17.2 kmh 29.87 in1011.5 mb 0.05 in1.3 mm 0.00 in0.0 mm 0.05 in1.3 mm
08:45 AM 79.2°F26.2°C 71.8°F22.1°C 78% 3.8 mph NW6.1 kmh NW 10.7 mph17.2 kmh 29.86 in1011.2 mb 0.02 in0.5 mm 0.00 in0.0 mm 0.05 in1.3 mm
08:50 AM 79.2°F26.2°C 71.8°F22.1°C 78% 3.8 mph NW6.1 kmh NW 10.7 mph17.2 kmh 29.86 in1011.2 mb 0.00 in0.0 mm 0.00 in0.0 mm 0.05 in1.3 mm
08:55 AM 79.2°F26.2°C 71.8°F22.1°C 78% 3.8 mph NW6.1 kmh NW 10.7 mph17.2 kmh 29.85 in1010.8 mb 0.00 in0.0 mm 0.00 in0.0 mm 0.05 in1.3 mm
09:00 AM 79.2°F26.2°C 71.8°F22.1°C 78% 3.8 mph NW6.1 kmh NW 10.7 mph17.2 kmh 29.86 in1011.2 mb 0.00 in0.0 mm 0.00 in0.0 mm 0.05 in1.3 mm
09:05 AM 79.2°F26.2°C 71.8°F22.1°C 78% 3.8 mph NW6.1 kmh NW 10.7 mph17.2 kmh 29.87 in1011.5 mb 0.00 in0.0 mm 0.00 in0.0 mm 0.05 in1.3 mm
09:10 AM 79.2°F26.2°C 71.8°F22.1°C 78% 3.8 mph NW6.1 kmh NW 10.7 mph17.2 kmh 29.87 in1011.5 mb 0.00 in0.0 mm 0.00 in0.0 mm 0.05 in1.3 mm
09:15 AM 79.2°F26.2°C 71.8°F22.1°C 78% 3.8 mph NW6.1 kmh NW 10.7 mph17.2 kmh 29.88 in1011.9 mb 0.00 in0.0 mm 0.00 in0.0 mm 0.05 in1.3 mm
09:20 AM 79.2°F26.2°C 71.8°F22.1°C 78% 3.8 mph NW6.1 kmh NW 10.7 mph17.2 kmh 29.88 in1011.9 mb 0.00 in0.0 mm 0.00 in0.0 mm 0.05 in1.3 mm
09:25 AM 79.2°F26.2°C 71.8°F22.1°C 78% 3.8 mph NW6.1 kmh NW 10.7 mph17.2 kmh 29.88 in1011.9 mb 0.00 in0.0 mm 0.00 in0.0 mm 0.05 in1.3 mm
09:30 AM 79.2°F26.2°C 71.8°F22.1°C 78% 3.8 mph NW6.1 kmh NW 10.7 mph17.2 kmh 29.89 in1012.2 mb 0.00 in0.0 mm 0.00 in0.0 mm 0.05 in1.3 mm
09:35 AM 79.2°F26.2°C 71.8°F22.1°C 78% 3.8 mph NW6.1 kmh NW 10.7 mph17.2 kmh 29.89 in1012.2 mb 0.00 in0.0 mm 0.00 in0.0 mm 0.05 in1.3 mm
09:40 AM 79.2°F26.2°C 71.8°F22.1°C 78% 3.8 mph NW6.1 kmh NW 10.7 mph17.2 kmh 29.89 in1012.2 mb 0.00 in0.0 mm 0.00 in0.0 mm 0.05 in1.3 mm
09:45 AM 79.2°F26.2°C 71.8°F22.1°C 78% 3.8 mph NW6.1 kmh NW 10.7 mph17.2 kmh 29.90 in1012.5 mb 0.00 in0.0 mm 0.00 in0.0 mm 0.05 in1.3 mm
09:50 AM 79.2°F26.2°C 71.8°F22.1°C 78% 3.8 mph NW6.1 kmh NW 10.7 mph17.2 kmh 29.89 in1012.2 mb 0.00 in0.0 mm 0.00 in0.0 mm 0.05 in1.3 mm
09:55 AM 79.2°F26.2°C 71.8°F22.1°C 78% 3.8 mph NW6.1 kmh NW 10.7 mph17.2 kmh 29.89 in1012.2 mb 0.00 in0.0 mm 0.00 in0.0 mm 0.05 in1.3 mm
10:00 AM 79.2°F26.2°C 71.8°F22.1°C 78% 3.8 mph NW6.1 kmh NW 10.7 mph17.2 kmh 29.89 in1012.2 mb 0.00 in0.0 mm 0.00 in0.0 mm 0.05 in1.3 mm
10:05 AM 79.2°F26.2°C 71.8°F22.1°C 78% 3.8 mph NW6.1 kmh NW 10.7 mph17.2 kmh 29.89 in1012.2 mb 0.00 in0.0 mm 0.00 in0.0 mm 0.05 in1.3 mm
10:10 AM 79.2°F26.2°C 71.8°F22.1°C 78% 3.8 mph NW6.1 kmh NW 10.7 mph17.2 kmh 29.89 in1012.2 mb 0.00 in0.0 mm 0.00 in0.0 mm 0.05 in1.3 mm
10:15 AM 79.2°F26.2°C 71.8°F22.1°C 78% 3.8 mph NW6.1 kmh NW 10.7 mph17.2 kmh 29.90 in1012.5 mb 0.00 in0.0 mm 0.00 in0.0 mm 0.05 in1.3 mm
10:20 AM 79.2°F26.2°C 71.8°F22.1°C 78% 3.8 mph NW6.1 kmh NW 10.7 mph17.2 kmh 29.90 in1012.5 mb 0.00 in0.0 mm 0.00 in0.0 mm 0.05 in1.3 mm
10:25 AM 79.2°F26.2°C 71.8°F22.1°C 78% 3.8 mph NW6.1 kmh NW 10.7 mph17.2 kmh 29.90 in1012.5 mb 0.00 in0.0 mm 0.00 in0.0 mm 0.05 in1.3 mm
10:30 AM 79.2°F26.2°C 71.8°F22.1°C 78% 3.8 mph NW6.1 kmh NW 10.7 mph17.2 kmh 29.90 in1012.5 mb 0.00 in0.0 mm 0.00 in0.0 mm 0.05 in1.3 mm
10:35 AM 79.2°F26.2°C 71.8°F22.1°C 78% 3.8 mph NW6.1 kmh NW 10.7 mph17.2 kmh 29.91 in1012.9 mb 0.00 in0.0 mm 0.00 in0.0 mm 0.05 in1.3 mm
10:40 AM 79.2°F26.2°C 71.8°F22.1°C 78% 3.8 mph NW6.1 kmh NW 10.7 mph17.2 kmh 29.90 in1012.5 mb 0.00 in0.0 mm 0.00 in0.0 mm 0.05 in1.3 mm
10:45 AM 79.2°F26.2°C 71.8°F22.1°C 78% 3.8 mph NW6.1 kmh NW 10.7 mph17.2 kmh 29.90 in1012.5 mb 0.00 in0.0 mm 0.00 in0.0 mm 0.05 in1.3 mm
10:50 AM 79.2°F26.2°C 71.8°F22.1°C 78% 3.8 mph NW6.1 kmh NW 10.7 mph17.2 kmh 29.91 in1012.9 mb 0.00 in0.0 mm 0.00 in0.0 mm 0.05 in1.3 mm
10:55 AM 79.2°F26.2°C 71.8°F22.1°C 78% 3.8 mph NW6.1 kmh NW 10.7 mph17.2 kmh 29.90 in1012.5 mb 0.00 in0.0 mm 0.00 in0.0 mm 0.05 in1.3 mm
11:00 AM 79.2°F26.2°C 71.8°F22.1°C 78% 3.8 mph NW6.1 kmh NW 10.7 mph17.2 kmh 29.90 in1012.5 mb 0.00 in0.0 mm 0.00 in0.0 mm 0.05 in1.3 mm
11:05 AM 79.2°F26.2°C 71.8°F22.1°C 78% 3.8 mph NW6.1 kmh NW 10.7 mph17.2 kmh 29.91 in1012.9 mb 0.00 in0.0 mm 0.00 in0.0 mm 0.05 in1.3 mm
11:10 AM 79.2°F26.2°C 71.8°F22.1°C 78% 3.8 mph NW6.1 kmh NW 10.7 mph17.2 kmh 29.92 in1013.2 mb 0.00 in0.0 mm 0.00 in0.0 mm 0.05 in1.3 mm
11:15 AM 79.2°F26.2°C 71.8°F22.1°C 78% 3.8 mph NW6.1 kmh NW 10.7 mph17.2 kmh 29.92 in1013.2 mb 0.00 in0.0 mm 0.00 in0.0 mm 0.05 in1.3 mm
11:20 AM 79.2°F26.2°C 71.8°F22.1°C 78% 3.8 mph NW6.1 kmh NW 10.7 mph17.2 kmh 29.92 in1013.2 mb 0.00 in0.0 mm 0.00 in0.0 mm 0.05 in1.3 mm
11:25 AM 84.9°F29.4°C 75.4°F24.1°C 73% 1.6 mph SE2.6 kmh SE 3.1 mph5.0 kmh 29.92 in1013.2 mb 0.00 in0.0 mm 0.00 in0.0 mm 0.05 in1.3 mm
11:30 AM 84.4°F29.1°C 74.8°F23.8°C 73% 3.8 mph E6.1 kmh E 5.4 mph8.7 kmh 29.92 in1013.2 mb 0.00 in0.0 mm 0.00 in0.0 mm 0.05 in1.3 mm
11:35 AM 83.8°F28.8°C 74.3°F23.5°C 73% 0.7 mph E1.1 kmh E 5.4 mph8.7 kmh 29.92 in1013.2 mb 0.00 in0.0 mm 0.00 in0.0 mm 0.05 in1.3 mm
11:40 AM 83.3°F28.5°C 74.2°F23.4°C 74% 2.2 mph SE3.5 kmh SE 5.4 mph8.7 kmh 29.93 in1013.5 mb 0.00 in0.0 mm 0.00 in0.0 mm 0.05 in1.3 mm
11:45 AM 82.8°F28.2°C 73.7°F23.2°C 74% 2.2 mph SE3.5 kmh SE 3.8 mph6.1 kmh 29.93 in1013.5 mb 0.00 in0.0 mm 0.00 in0.0 mm 0.05 in1.3 mm
11:50 AM 82.4°F28.0°C 73.7°F23.2°C 75% 3.1 mph SE5.0 kmh SE 6.0 mph9.7 kmh 29.92 in1013.2 mb 0.00 in0.0 mm 0.00 in0.0 mm 0.05 in1.3 mm
11:55 AM 81.9°F27.7°C 73.6°F23.1°C 76% 3.8 mph SE6.1 kmh SE 6.0 mph9.7 kmh 29.92 in1013.2 mb 0.00 in0.0 mm 0.00 in0.0 mm 0.05 in1.3 mm
12:00 PM 81.7°F27.6°C 73.4°F23.0°C 76% 3.8 mph SE6.1 kmh SE 7.6 mph12.2 kmh 29.92 in1013.2 mb 0.00 in0.0 mm 0.00 in0.0 mm 0.05 in1.3 mm
12:05 PM 81.3°F27.4°C 73.5°F23.1°C 77% 4.5 mph SE7.2 kmh SE 9.2 mph14.8 kmh 29.92 in1013.2 mb 0.00 in0.0 mm 0.00 in0.0 mm 0.05 in1.3 mm
12:10 PM 80.8°F27.1°C 73.3°F22.9°C 78% 5.4 mph SE8.7 kmh SE 9.2 mph14.8 kmh 29.92 in1013.2 mb 0.00 in0.0 mm 0.00 in0.0 mm 0.06 in1.5 mm
12:15 PM 80.6°F27.0°C 73.5°F23.1°C 79% 3.8 mph SE6.1 kmh SE 9.2 mph14.8 kmh 29.92 in1013.2 mb 0.00 in0.0 mm 0.00 in0.0 mm 0.06 in1.5 mm
12:20 PM 80.4°F26.9°C 73.4°F23.0°C 79% 4.5 mph SE7.2 kmh SE 9.2 mph14.8 kmh 29.91 in1012.9 mb 0.00 in0.0 mm 0.00 in0.0 mm 0.06 in1.5 mm
12:25 PM 80.4°F26.9°C 73.4°F23.0°C 79% 5.4 mph SE8.7 kmh SE 9.2 mph14.8 kmh 29.91 in1012.9 mb 0.01 in0.3 mm 0.12 in3.0 mm 0.06 in1.5 mm
12:30 PM 80.2°F26.8°C 73.6°F23.1°C 80% 5.4 mph SE8.7 kmh SE 9.2 mph14.8 kmh 29.91 in1012.9 mb 0.01 in0.3 mm 0.00 in0.0 mm 0.06 in1.5 mm
12:35 PM 80.2°F26.8°C 73.6°F23.1°C 80% 4.5 mph SSE7.2 kmh SSE 9.2 mph14.8 kmh 29.91 in1012.9 mb 0.01 in0.3 mm 0.00 in0.0 mm 0.06 in1.5 mm
12:40 PM 80.1°F26.7°C 73.8°F23.2°C 81% 6.0 mph SSE9.7 kmh SSE 9.8 mph15.8 kmh 29.91 in1012.9 mb 0.01 in0.3 mm 0.00 in0.0 mm 0.06 in1.5 mm
12:45 PM 80.1°F26.7°C 73.8°F23.2°C 81% 4.5 mph SSE7.2 kmh SSE 9.8 mph15.8 kmh 29.90 in1012.5 mb 0.01 in0.3 mm 0.00 in0.0 mm 0.06 in1.5 mm
12:50 PM 79.9°F26.6°C 73.6°F23.1°C 81% 4.5 mph SSE7.2 kmh SSE 9.8 mph15.8 kmh 29.91 in1012.9 mb 0.01 in0.3 mm 0.00 in0.0 mm 0.06 in1.5 mm
12:55 PM 80.1°F26.7°C 73.8°F23.2°C 81% 5.4 mph S8.7 kmh S 9.8 mph15.8 kmh 29.91 in1012.9 mb 0.01 in0.3 mm 0.00 in0.0 mm 0.06 in1.5 mm
01:00 PM 80.1°F26.7°C 73.8°F23.2°C 81% 5.4 mph S8.7 kmh S 9.8 mph15.8 kmh 29.90 in1012.5 mb 0.01 in0.3 mm 0.00 in0.0 mm 0.06 in1.5 mm
01:05 PM 80.2°F26.8°C 73.9°F23.3°C 81% 3.8 mph S6.1 kmh S 9.8 mph15.8 kmh 29.91 in1012.9 mb 0.01 in0.3 mm 0.00 in0.0 mm 0.06 in1.5 mm
01:10 PM 80.4°F26.9°C 74.1°F23.4°C 81% 6.0 mph S9.7 kmh S 8.3 mph13.4 kmh 29.91 in1012.9 mb 0.00 in0.0 mm 0.00 in0.0 mm 0.06 in1.5 mm
01:15 PM 80.8°F27.1°C 74.1°F23.4°C 80% 4.5 mph S7.2 kmh S 8.3 mph13.4 kmh 29.90 in1012.5 mb 0.00 in0.0 mm 0.00 in0.0 mm 0.06 in1.5 mm
01:20 PM 81.0°F27.2°C 74.3°F23.5°C 80% 2.2 mph S3.5 kmh S 7.6 mph12.2 kmh 29.90 in1012.5 mb 0.00 in0.0 mm 0.00 in0.0 mm 0.06 in1.5 mm
01:25 PM 81.1°F27.3°C 74.1°F23.4°C 79% 3.8 mph SSE6.1 kmh SSE 6.0 mph9.7 kmh 29.90 in1012.5 mb 0.00 in0.0 mm 0.00 in0.0 mm 0.06 in1.5 mm
01:30 PM 81.1°F27.3°C 74.1°F23.4°C 79% 4.5 mph SSE7.2 kmh SSE 6.9 mph11.1 kmh 29.90 in1012.5 mb 0.00 in0.0 mm 0.00 in0.0 mm 0.06 in1.5 mm
01:35 PM 81.1°F27.3°C 74.1°F23.4°C 79% 4.5 mph SE7.2 kmh SE 8.3 mph13.4 kmh 29.89 in1012.2 mb 0.00 in0.0 mm 0.00 in0.0 mm 0.06 in1.5 mm
01:40 PM 81.3°F27.4°C 74.2°F23.4°C 79% 6.0 mph SE9.7 kmh SE 9.2 mph14.8 kmh 29.90 in1012.5 mb 0.00 in0.0 mm 0.00 in0.0 mm 0.06 in1.5 mm
01:45 PM 81.5°F27.5°C 74.4°F23.6°C 79% 4.5 mph SE7.2 kmh SE 9.2 mph14.8 kmh 29.90 in1012.5 mb 0.00 in0.0 mm 0.00 in0.0 mm 0.06 in1.5 mm
01:50 PM 81.5°F27.5°C 74.4°F23.6°C 79% 8.3 mph SE13.4 kmh SE 10.7 mph17.2 kmh 29.89 in1012.2 mb 0.00 in0.0 mm 0.00 in0.0 mm 0.06 in1.5 mm
01:55 PM 81.7°F27.6°C 74.2°F23.4°C 78% 6.0 mph SE9.7 kmh SE 10.7 mph17.2 kmh 29.89 in1012.2 mb 0.00 in0.0 mm 0.00 in0.0 mm 0.06 in1.5 mm
02:00 PM 81.9°F27.7°C 74.4°F23.6°C 78% 4.5 mph SE7.2 kmh SE 11.4 mph18.3 kmh 29.89 in1012.2 mb 0.00 in0.0 mm 0.00 in0.0 mm 0.06 in1.5 mm
02:05 PM 82.0°F27.8°C 74.6°F23.7°C 78% 6.0 mph SE9.7 kmh SE 11.4 mph18.3 kmh 29.89 in1012.2 mb 0.00 in0.0 mm 0.00 in0.0 mm 0.06 in1.5 mm
02:10 PM 82.6°F28.1°C 74.7°F23.7°C 77% 4.5 mph SE7.2 kmh SE 10.7 mph17.2 kmh 29.88 in1011.9 mb 0.00 in0.0 mm 0.00 in0.0 mm 0.06 in1.5 mm
02:15 PM 82.9°F28.3°C 75.0°F23.9°C 77% 3.8 mph SE6.1 kmh SE 8.3 mph13.4 kmh 29.88 in1011.9 mb 0.00 in0.0 mm 0.00 in0.0 mm 0.06 in1.5 mm
02:20 PM 83.3°F28.5°C 75.4°F24.1°C 77% 3.1 mph SE5.0 kmh SE 8.3 mph13.4 kmh 29.88 in1011.9 mb 0.00 in0.0 mm 0.00 in0.0 mm 0.06 in1.5 mm
02:25 PM 83.8°F28.8°C 75.9°F24.4°C 77% 1.6 mph SE2.6 kmh SE 6.0 mph9.7 kmh 29.88 in1011.9 mb 0.00 in0.0 mm 0.00 in0.0 mm 0.06 in1.5 mm
02:30 PM 84.6°F29.2°C 75.8°F24.3°C 75% 3.1 mph S5.0 kmh S 5.4 mph8.7 kmh 29.88 in1011.9 mb 0.00 in0.0 mm 0.00 in0.0 mm 0.06 in1.5 mm
02:35 PM 84.9°F29.4°C 76.2°F24.6°C 75% 4.5 mph S7.2 kmh S 5.4 mph8.7 kmh 29.88 in1011.9 mb 0.00 in0.0 mm 0.00 in0.0 mm 0.06 in1.5 mm
02:40 PM 85.3°F29.6°C 76.1°F24.5°C 74% 7.6 mph S12.2 kmh S 9.2 mph14.8 kmh 29.88 in1011.9 mb 0.00 in0.0 mm 0.00 in0.0 mm 0.06 in1.5 mm
02:45 PM 85.8°F29.9°C 76.6°F24.8°C 74% 6.0 mph S9.7 kmh S 9.2 mph14.8 kmh 29.88 in1011.9 mb 0.00 in0.0 mm 0.00 in0.0 mm 0.06 in1.5 mm
02:50 PM 86.2°F30.1°C 77.0°F25.0°C 74% 7.6 mph S12.2 kmh S 9.2 mph14.8 kmh 29.87 in1011.5 mb 0.00 in0.0 mm 0.00 in0.0 mm 0.06 in1.5 mm
02:55 PM 86.7°F30.4°C 77.1°F25.1°C 73% 4.5 mph S7.2 kmh S 9.2 mph14.8 kmh 29.87 in1011.5 mb 0.00 in0.0 mm 0.00 in0.0 mm 0.06 in1.5 mm
03:00 PM 87.1°F30.6°C 77.0°F25.0°C 72% 4.5 mph SSE7.2 kmh SSE 9.2 mph14.8 kmh 29.87 in1011.5 mb 0.00 in0.0 mm 0.00 in0.0 mm 0.06 in1.5 mm
03:05 PM 87.3°F30.7°C 77.2°F25.1°C 72% 4.5 mph SE7.2 kmh SE 8.3 mph13.4 kmh 29.87 in1011.5 mb 0.00 in0.0 mm 0.00 in0.0 mm 0.06 in1.5 mm
03:10 PM 87.3°F30.7°C 76.8°F24.9°C 71% 3.8 mph SSE6.1 kmh SSE 6.9 mph11.1 kmh 29.87 in1011.5 mb 0.00 in0.0 mm 0.00 in0.0 mm 0.06 in1.5 mm
03:15 PM 87.3°F30.7°C 76.8°F24.9°C 71% 3.1 mph SSE5.0 kmh SSE 6.0 mph9.7 kmh 29.87 in1011.5 mb 0.00 in0.0 mm 0.00 in0.0 mm 0.06 in1.5 mm
03:20 PM 87.1°F30.6°C 76.6°F24.8°C 71% 3.8 mph SSE6.1 kmh SSE 6.0 mph9.7 kmh 29.86 in1011.2 mb 0.00 in0.0 mm 0.00 in0.0 mm 0.06 in1.5 mm
03:25 PM 87.1°F30.6°C 76.6°F24.8°C 71% 4.5 mph S7.2 kmh S 6.9 mph11.1 kmh 29.86 in1011.2 mb 0.00 in0.0 mm 0.00 in0.0 mm 0.06 in1.5 mm
03:30 PM 87.3°F30.7°C 76.8°F24.9°C 71% 4.5 mph S7.2 kmh S 6.9 mph11.1 kmh 29.86 in1011.2 mb 0.00 in0.0 mm 0.00 in0.0 mm 0.06 in1.5 mm
03:35 PM 87.4°F30.8°C 77.4°F25.2°C 72% 3.8 mph SSE6.1 kmh SSE 6.9 mph11.1 kmh 29.86 in1011.2 mb 0.00 in0.0 mm 0.00 in0.0 mm 0.06 in1.5 mm
03:40 PM 87.8°F31.0°C 77.3°F25.2°C 71% 3.8 mph SE6.1 kmh SE 8.3 mph13.4 kmh 29.86 in1011.2 mb 0.00 in0.0 mm 0.00 in0.0 mm 0.06 in1.5 mm
03:45 PM 88.3°F31.3°C 77.4°F25.2°C 70% 6.0 mph SE9.7 kmh SE 8.3 mph13.4 kmh 29.86 in1011.2 mb 0.00 in0.0 mm 0.00 in0.0 mm 0.06 in1.5 mm
03:50 PM 89.1°F31.7°C 78.1°F25.6°C 70% 3.8 mph SE6.1 kmh SE 9.2 mph14.8 kmh 29.85 in1010.8 mb 0.00 in0.0 mm 0.00 in0.0 mm 0.06 in1.5 mm
03:55 PM 91.4°F33.0°C 79.4°F26.3°C 68% 4.5 mph SE7.2 kmh SE 9.2 mph14.8 kmh 29.86 in1011.2 mb 0.00 in0.0 mm 0.00 in0.0 mm 0.06 in1.5 mm
04:00 PM 92.1°F33.4°C 79.2°F26.2°C 66% 6.0 mph SE9.7 kmh SE 10.7 mph17.2 kmh 29.85 in1010.8 mb 0.00 in0.0 mm 0.00 in0.0 mm 0.06 in1.5 mm
04:05 PM 92.7°F33.7°C 79.7°F26.5°C 66% 5.4 mph SE8.7 kmh SE 10.7 mph17.2 kmh 29.84 in1010.5 mb 0.00 in0.0 mm 0.00 in0.0 mm 0.06 in1.5 mm
04:10 PM 93.6°F34.2°C 80.1°F26.7°C 65% 6.9 mph SE11.1 kmh SE 9.2 mph14.8 kmh 29.84 in1010.5 mb 0.00 in0.0 mm 0.00 in0.0 mm 0.06 in1.5 mm
04:15 PM 93.7°F34.3°C 79.8°F26.6°C 64% 6.9 mph SE11.1 kmh SE 10.7 mph17.2 kmh 29.84 in1010.5 mb 0.00 in0.0 mm 0.00 in0.0 mm 0.06 in1.5 mm
04:20 PM 93.7°F34.3°C 79.8°F26.6°C 64% 6.0 mph SSE9.7 kmh SSE 10.7 mph17.2 kmh 29.84 in1010.5 mb 0.00 in0.0 mm 0.00 in0.0 mm 0.06 in1.5 mm
04:25 PM 93.4°F34.1°C 79.5°F26.4°C 64% 6.9 mph SSE11.1 kmh SSE 9.2 mph14.8 kmh 29.84 in1010.5 mb 0.00 in0.0 mm 0.00 in0.0 mm 0.06 in1.5 mm
04:30 PM 93.2°F34.0°C 79.3°F26.3°C 64% 5.4 mph SE8.7 kmh SE 9.2 mph14.8 kmh 29.85 in1010.8 mb 0.00 in0.0 mm 0.00 in0.0 mm 0.06 in1.5 mm
04:35 PM 92.8°F33.8°C 79.4°F26.3°C 65% 4.5 mph SE7.2 kmh SE 11.4 mph18.3 kmh 29.84 in1010.5 mb 0.00 in0.0 mm 0.00 in0.0 mm 0.06 in1.5 mm
04:40 PM 92.3°F33.5°C 78.9°F26.1°C 65% 8.3 mph E13.4 kmh E 11.4 mph18.3 kmh 29.84 in1010.5 mb 0.00 in0.0 mm 0.00 in0.0 mm 0.06 in1.5 mm
04:45 PM 91.6°F33.1°C 78.2°F25.7°C 65% 6.0 mph ESE9.7 kmh ESE 9.8 mph15.8 kmh 29.84 in1010.5 mb 0.00 in0.0 mm 0.00 in0.0 mm 0.06 in1.5 mm
04:50 PM 91.0°F32.8°C 78.2°F25.7°C 66% 6.9 mph ESE11.1 kmh ESE 11.4 mph18.3 kmh 29.84 in1010.5 mb 0.00 in0.0 mm 0.00 in0.0 mm 0.06 in1.5 mm
04:55 PM 91.4°F33.0°C 78.5°F25.8°C 66% 4.5 mph SE7.2 kmh SE 11.4 mph18.3 kmh 29.85 in1010.8 mb 0.00 in0.0 mm 0.00 in0.0 mm 0.06 in1.5 mm
05:00 PM 91.9°F33.3°C 79.0°F26.1°C 66% 4.5 mph SE7.2 kmh SE 10.7 mph17.2 kmh 29.85 in1010.8 mb 0.00 in0.0 mm 0.00 in0.0 mm 0.06 in1.5 mm
05:05 PM 92.5°F33.6°C 79.1°F26.2°C 65% 4.5 mph SE7.2 kmh SE 9.2 mph14.8 kmh 29.85 in1010.8 mb 0.00 in0.0 mm 0.00 in0.0 mm 0.06 in1.5 mm
05:10 PM 92.5°F33.6°C 78.6°F25.9°C 64% 7.6 mph SE12.2 kmh SE 9.8 mph15.8 kmh 29.85 in1010.8 mb 0.00 in0.0 mm 0.00 in0.0 mm 0.06 in1.5 mm
05:15 PM 92.3°F33.5°C 78.4°F25.8°C 64% 6.9 mph ESE11.1 kmh ESE 9.8 mph15.8 kmh 29.85 in1010.8 mb 0.00 in0.0 mm 0.00 in0.0 mm 0.06 in1.5 mm
05:20 PM 91.8°F33.2°C 78.4°F25.8°C 65% 3.8 mph SE6.1 kmh SE 9.8 mph15.8 kmh 29.85 in1010.8 mb 0.00 in0.0 mm 0.00 in0.0 mm 0.06 in1.5 mm
05:25 PM 92.1°F33.4°C 78.7°F25.9°C 65% 6.0 mph SE9.7 kmh SE 11.4 mph18.3 kmh 29.85 in1010.8 mb 0.00 in0.0 mm 0.00 in0.0 mm 0.06 in1.5 mm
05:30 PM 91.8°F33.2°C 78.4°F25.8°C 65% 4.5 mph ESE7.2 kmh ESE 11.4 mph18.3 kmh 29.85 in1010.8 mb 0.00 in0.0 mm 0.00 in0.0 mm 0.06 in1.5 mm
05:35 PM 90.9°F32.7°C 77.5°F25.3°C 65% 5.4 mph SE8.7 kmh SE 9.8 mph15.8 kmh 29.85 in1010.8 mb 0.00 in0.0 mm 0.00 in0.0 mm 0.06 in1.5 mm
05:40 PM 90.7°F32.6°C 77.8°F25.4°C 66% 4.5 mph SE7.2 kmh SE 8.3 mph13.4 kmh 29.85 in1010.8 mb 0.00 in0.0 mm 0.00 in0.0 mm 0.06 in1.5 mm
05:45 PM 90.7°F32.6°C 78.3°F25.7°C 67% 5.4 mph SE8.7 kmh SE 8.3 mph13.4 kmh 29.84 in1010.5 mb 0.00 in0.0 mm 0.00 in0.0 mm 0.06 in1.5 mm
05:50 PM 90.9°F32.7°C 78.0°F25.6°C 66% 6.0 mph SSE9.7 kmh SSE 9.2 mph14.8 kmh 29.85 in1010.8 mb 0.00 in0.0 mm 0.00 in0.0 mm 0.06 in1.5 mm
05:55 PM 90.7°F32.6°C 77.8°F25.4°C 66% 6.0 mph SSE9.7 kmh SSE 9.2 mph14.8 kmh 29.84 in1010.5 mb 0.00 in0.0 mm 0.00 in0.0 mm 0.06 in1.5 mm
06:00 PM 90.9°F32.7°C 78.5°F25.8°C 67% 4.5 mph SE7.2 kmh SE 9.2 mph14.8 kmh 29.84 in1010.5 mb 0.00 in0.0 mm 0.00 in0.0 mm 0.06 in1.5 mm
06:05 PM 90.5°F32.5°C 77.7°F25.4°C 66% 6.0 mph SE9.7 kmh SE 8.3 mph13.4 kmh 29.84 in1010.5 mb 0.00 in0.0 mm 0.00 in0.0 mm 0.06 in1.5 mm
06:10 PM 89.6°F32.0°C 77.3°F25.2°C 67% 4.5 mph SE7.2 kmh SE 9.2 mph14.8 kmh 29.84 in1010.5 mb 0.00 in0.0 mm 0.00 in0.0 mm 0.06 in1.5 mm
06:15 PM 89.1°F31.7°C 77.2°F25.1°C 68% 5.4 mph SE8.7 kmh SE 9.2 mph14.8 kmh 29.86 in1011.2 mb 0.00 in0.0 mm 0.00 in0.0 mm 0.06 in1.5 mm
06:20 PM 88.7°F31.5°C 77.3°F25.2°C 69% 3.8 mph ESE6.1 kmh ESE 9.2 mph14.8 kmh 29.86 in1011.2 mb 0.00 in0.0 mm 0.00 in0.0 mm 0.06 in1.5 mm
06:25 PM 88.3°F31.3°C 77.0°F25.0°C 69% 5.4 mph ESE8.7 kmh ESE 9.8 mph15.8 kmh 29.86 in1011.2 mb 0.00 in0.0 mm 0.00 in0.0 mm 0.06 in1.5 mm
06:30 PM 88.0°F31.1°C 77.0°F25.0°C 70% 3.8 mph ESE6.1 kmh ESE 9.8 mph15.8 kmh 29.86 in1011.2 mb 0.00 in0.0 mm 0.00 in0.0 mm 0.06 in1.5 mm
06:35 PM 88.2°F31.2°C 77.2°F25.1°C 70% 4.5 mph SE7.2 kmh SE 7.6 mph12.2 kmh 29.86 in1011.2 mb 0.00 in0.0 mm 0.00 in0.0 mm 0.06 in1.5 mm
06:40 PM 87.8°F31.0°C 76.9°F24.9°C 70% 5.4 mph SE8.7 kmh SE 8.3 mph13.4 kmh 29.86 in1011.2 mb 0.00 in0.0 mm 0.00 in0.0 mm 0.06 in1.5 mm
06:45 PM 87.6°F30.9°C 76.7°F24.8°C 70% 6.0 mph SE9.7 kmh SE 8.3 mph13.4 kmh 29.86 in1011.2 mb 0.00 in0.0 mm 0.00 in0.0 mm 0.06 in1.5 mm
06:50 PM 87.4°F30.8°C 76.5°F24.7°C 70% 3.8 mph SE6.1 kmh SE 8.3 mph13.4 kmh 29.86 in1011.2 mb 0.00 in0.0 mm 0.00 in0.0 mm 0.06 in1.5 mm
06:55 PM 87.4°F30.8°C 77.0°F25.0°C 71% 2.2 mph ESE3.5 kmh ESE 6.9 mph11.1 kmh 29.86 in1011.2 mb 0.00 in0.0 mm 0.00 in0.0 mm 0.06 in1.5 mm
07:00 PM 87.1°F30.6°C 76.6°F24.8°C 71% 3.1 mph E5.0 kmh E 6.9 mph11.1 kmh 29.86 in1011.2 mb 0.00 in0.0 mm 0.00 in0.0 mm 0.06 in1.5 mm
07:05 PM 86.9°F30.5°C 76.4°F24.7°C 71% 3.1 mph E5.0 kmh E 5.4 mph8.7 kmh 29.86 in1011.2 mb 0.00 in0.0 mm 0.00 in0.0 mm 0.06 in1.5 mm
07:10 PM 86.7°F30.4°C 76.3°F24.6°C 71% 3.1 mph E5.0 kmh E 5.4 mph8.7 kmh 29.86 in1011.2 mb 0.00 in0.0 mm 0.00 in0.0 mm 0.06 in1.5 mm
07:15 PM 86.4°F30.2°C 76.3°F24.6°C 72% 2.2 mph ESE3.5 kmh ESE 5.4 mph8.7 kmh 29.86 in1011.2 mb 0.00 in0.0 mm 0.00 in0.0 mm 0.06 in1.5 mm
07:20 PM 86.2°F30.1°C 76.2°F24.6°C 72% 3.1 mph SE5.0 kmh SE 5.4 mph8.7 kmh 29.87 in1011.5 mb 0.00 in0.0 mm 0.00 in0.0 mm 0.06 in1.5 mm
07:25 PM 86.0°F30.0°C 76.0°F24.4°C 72% 2.2 mph SE3.5 kmh SE 5.4 mph8.7 kmh 29.86 in1011.2 mb 0.00 in0.0 mm 0.00 in0.0 mm 0.06 in1.5 mm
07:30 PM 85.8°F29.9°C 76.2°F24.6°C 73% 3.8 mph ESE6.1 kmh ESE 5.4 mph8.7 kmh 29.86 in1011.2 mb 0.00 in0.0 mm 0.00 in0.0 mm 0.06 in1.5 mm
07:35 PM 85.3°F29.6°C 75.7°F24.3°C 73% 3.1 mph SE5.0 kmh SE 5.4 mph8.7 kmh 29.86 in1011.2 mb 0.00 in0.0 mm 0.00 in0.0 mm 0.06 in1.5 mm
07:40 PM 84.9°F29.4°C 75.4°F24.1°C 73% 1.6 mph SE2.6 kmh SE 4.5 mph7.2 kmh 29.86 in1011.2 mb 0.00 in0.0 mm 0.00 in0.0 mm 0.06 in1.5 mm
07:45 PM 84.6°F29.2°C 75.4°F24.1°C 74% 3.1 mph SE5.0 kmh SE 5.4 mph8.7 kmh 29.86 in1011.2 mb 0.00 in0.0 mm 0.00 in0.0 mm 0.06 in1.5 mm
07:50 PM 84.6°F29.2°C 75.4°F24.1°C 74% 2.2 mph SE3.5 kmh SE 7.6 mph12.2 kmh 29.86 in1011.2 mb 0.00 in0.0 mm 0.00 in0.0 mm 0.06 in1.5 mm
07:55 PM 84.0°F28.9°C 75.3°F24.1°C 75% 3.8 mph SE6.1 kmh SE 7.6 mph12.2 kmh 29.86 in1011.2 mb 0.00 in0.0 mm 0.00 in0.0 mm 0.06 in1.5 mm
08:00 PM 83.8°F28.8°C 75.1°F23.9°C 75% 2.2 mph SE3.5 kmh SE 6.0 mph9.7 kmh 29.87 in1011.5 mb 0.00 in0.0 mm 0.00 in0.0 mm 0.06 in1.5 mm
08:05 PM 83.7°F28.7°C 75.0°F23.9°C 75% 2.2 mph SE3.5 kmh SE 6.0 mph9.7 kmh 29.86 in1011.2 mb 0.00 in0.0 mm 0.00 in0.0 mm 0.06 in1.5 mm
08:10 PM 83.5°F28.6°C 74.8°F23.8°C 75% 3.1 mph SE5.0 kmh SE 3.8 mph6.1 kmh 29.87 in1011.5 mb 0.00 in0.0 mm 0.00 in0.0 mm 0.06 in1.5 mm
08:15 PM 83.3°F28.5°C 75.0°F23.9°C 76% 2.2 mph SE3.5 kmh SE 4.5 mph7.2 kmh 29.87 in1011.5 mb 0.00 in0.0 mm 0.00 in0.0 mm 0.06 in1.5 mm
08:20 PM 82.9°F28.3°C 74.7°F23.7°C 76% 1.6 mph SE2.6 kmh SE 4.5 mph7.2 kmh 29.87 in1011.5 mb 0.00 in0.0 mm 0.00 in0.0 mm 0.06 in1.5 mm
08:25 PM 82.8°F28.2°C 74.5°F23.6°C 76% 2.2 mph SE3.5 kmh SE 5.4 mph8.7 kmh 29.87 in1011.5 mb 0.00 in0.0 mm 0.00 in0.0 mm 0.06 in1.5 mm
08:30 PM 82.6°F28.1°C 74.3°F23.5°C 76% 3.1 mph SE5.0 kmh SE 5.4 mph8.7 kmh 29.87 in1011.5 mb 0.00 in0.0 mm 0.00 in0.0 mm 0.06 in1.5 mm
08:35 PM 82.4°F28.0°C 74.1°F23.4°C 76% 3.1 mph SE5.0 kmh SE 6.0 mph9.7 kmh 29.87 in1011.5 mb 0.00 in0.0 mm 0.00 in0.0 mm 0.06 in1.5 mm
08:40 PM 82.2°F27.9°C 74.0°F23.3°C 76% 3.8 mph SE6.1 kmh SE 6.0 mph9.7 kmh 29.86 in1011.2 mb 0.00 in0.0 mm 0.00 in0.0 mm 0.06 in1.5 mm
08:45 PM 82.4°F28.0°C 74.5°F23.6°C 77% 2.2 mph SSE3.5 kmh SSE 6.9 mph11.1 kmh 29.87 in1011.5 mb 0.00 in0.0 mm 0.00 in0.0 mm 0.06 in1.5 mm
08:50 PM 82.2°F27.9°C 74.3°F23.5°C 77% 2.2 mph SE3.5 kmh SE 6.9 mph11.1 kmh 29.88 in1011.9 mb 0.00 in0.0 mm 0.00 in0.0 mm 0.06 in1.5 mm
08:55 PM 82.0°F27.8°C 74.2°F23.4°C 77% 3.1 mph SE5.0 kmh SE 5.4 mph8.7 kmh 29.88 in1011.9 mb 0.00 in0.0 mm 0.00 in0.0 mm 0.06 in1.5 mm
09:00 PM 81.9°F27.7°C 74.0°F23.3°C 77% 5.4 mph SE8.7 kmh SE 7.6 mph12.2 kmh 29.88 in1011.9 mb 0.00 in0.0 mm 0.00 in0.0 mm 0.06 in1.5 mm
09:05 PM 82.0°F27.8°C 74.2°F23.4°C 77% 6.0 mph SE9.7 kmh SE 8.3 mph13.4 kmh 29.88 in1011.9 mb 0.00 in0.0 mm 0.00 in0.0 mm 0.06 in1.5 mm
09:10 PM 82.0°F27.8°C 74.2°F23.4°C 77% 6.9 mph SE11.1 kmh SE 9.2 mph14.8 kmh 29.88 in1011.9 mb 0.00 in0.0 mm 0.00 in0.0 mm 0.06 in1.5 mm
09:15 PM 81.9°F27.7°C 74.0°F23.3°C 77% 5.4 mph SE8.7 kmh SE 9.2 mph14.8 kmh 29.88 in1011.9 mb 0.00 in0.0 mm 0.00 in0.0 mm 0.06 in1.5 mm
09:20 PM 81.9°F27.7°C 74.0°F23.3°C 77% 4.5 mph SE7.2 kmh SE 9.2 mph14.8 kmh 29.88 in1011.9 mb 0.00 in0.0 mm 0.00 in0.0 mm 0.06 in1.5 mm
09:25 PM 81.9°F27.7°C 74.0°F23.3°C 77% 3.8 mph SE6.1 kmh SE 7.6 mph12.2 kmh 29.88 in1011.9 mb 0.00 in0.0 mm 0.00 in0.0 mm 0.06 in1.5 mm
09:30 PM 81.7°F27.6°C 73.8°F23.2°C 77% 3.8 mph SE6.1 kmh SE 6.9 mph11.1 kmh 29.89 in1012.2 mb 0.00 in0.0 mm 0.00 in0.0 mm 0.06 in1.5 mm
09:35 PM 81.5°F27.5°C 73.7°F23.2°C 77% 3.8 mph SE6.1 kmh SE 6.0 mph9.7 kmh 29.89 in1012.2 mb 0.00 in0.0 mm 0.00 in0.0 mm 0.06 in1.5 mm
09:40 PM 81.7°F27.6°C 73.8°F23.2°C 77% 2.2 mph SE3.5 kmh SE 6.9 mph11.1 kmh 29.90 in1012.5 mb 0.00 in0.0 mm 0.00 in0.0 mm 0.06 in1.5 mm
09:45 PM 81.5°F27.5°C 73.7°F23.2°C 77% 3.1 mph SE5.0 kmh SE 6.9 mph11.1 kmh 29.89 in1012.2 mb 0.00 in0.0 mm 0.00 in0.0 mm 0.06 in1.5 mm
09:50 PM 81.3°F27.4°C 73.5°F23.1°C 77% 3.1 mph SE5.0 kmh SE 6.0 mph9.7 kmh 29.89 in1012.2 mb 0.00 in0.0 mm 0.00 in0.0 mm 0.06 in1.5 mm
09:55 PM 81.1°F27.3°C 73.7°F23.2°C 78% 3.1 mph ESE5.0 kmh ESE 5.4 mph8.7 kmh 29.90 in1012.5 mb 0.00 in0.0 mm 0.00 in0.0 mm 0.06 in1.5 mm
10:00 PM 81.1°F27.3°C 73.7°F23.2°C 78% 3.8 mph ESE6.1 kmh ESE 6.0 mph9.7 kmh 29.90 in1012.5 mb 0.00 in0.0 mm 0.00 in0.0 mm 0.06 in1.5 mm
10:05 PM 81.0°F27.2°C 73.5°F23.1°C 78% 3.1 mph SE5.0 kmh SE 6.9 mph11.1 kmh 29.90 in1012.5 mb 0.00 in0.0 mm 0.00 in0.0 mm 0.06 in1.5 mm
10:10 PM 81.0°F27.2°C 73.5°F23.1°C 78% 2.2 mph SE3.5 kmh SE 6.9 mph11.1 kmh 29.91 in1012.9 mb 0.00 in0.0 mm 0.00 in0.0 mm 0.06 in1.5 mm
10:15 PM 80.8°F27.1°C 73.3°F22.9°C 78% 3.8 mph SE6.1 kmh SE 6.0 mph9.7 kmh 29.91 in1012.9 mb 0.00 in0.0 mm 0.00 in0.0 mm 0.06 in1.5 mm
10:20 PM 80.8°F27.1°C 73.3°F22.9°C 78% 3.1 mph SE5.0 kmh SE 6.0 mph9.7 kmh 29.91 in1012.9 mb 0.00 in0.0 mm 0.00 in0.0 mm 0.06 in1.5 mm
10:25 PM 80.6°F27.0°C 73.2°F22.9°C 78% 5.4 mph SE8.7 kmh SE 7.6 mph12.2 kmh 29.91 in1012.9 mb 0.00 in0.0 mm 0.00 in0.0 mm 0.06 in1.5 mm
10:30 PM 80.6°F27.0°C 73.2°F22.9°C 78% 2.2 mph SE3.5 kmh SE 7.6 mph12.2 kmh 29.90 in1012.5 mb 0.00 in0.0 mm 0.00 in0.0 mm 0.06 in1.5 mm
10:35 PM 80.6°F27.0°C 73.2°F22.9°C 78% 4.5 mph SE7.2 kmh SE 7.6 mph12.2 kmh 29.91 in1012.9 mb 0.00 in0.0 mm 0.00 in0.0 mm 0.06 in1.5 mm
10:40 PM 80.6°F27.0°C 73.5°F23.1°C 79% 3.1 mph SE5.0 kmh SE 6.9 mph11.1 kmh 29.91 in1012.9 mb 0.00 in0.0 mm 0.00 in0.0 mm 0.06 in1.5 mm
10:45 PM 80.6°F27.0°C 73.5°F23.1°C 79% 3.1 mph SSE5.0 kmh SSE 6.9 mph11.1 kmh 29.91 in1012.9 mb 0.00 in0.0 mm 0.00 in0.0 mm 0.06 in1.5 mm
10:50 PM 80.6°F27.0°C 73.5°F23.1°C 79% 4.5 mph SE7.2 kmh SE 7.6 mph12.2 kmh 29.91 in1012.9 mb 0.00 in0.0 mm 0.00 in0.0 mm 0.06 in1.5 mm
10:55 PM 80.2°F26.8°C 73.2°F22.9°C 79% 3.8 mph SE6.1 kmh SE 7.6 mph12.2 kmh 29.90 in1012.5 mb 0.00 in0.0 mm 0.00 in0.0 mm 0.06 in1.5 mm
11:00 PM 80.2°F26.8°C 73.2°F22.9°C 79% 2.2 mph SE3.5 kmh SE 7.6 mph12.2 kmh 29.91 in1012.9 mb 0.00 in0.0 mm 0.00 in0.0 mm 0.06 in1.5 mm
11:05 PM 80.2°F26.8°C 73.2°F22.9°C 79% 3.1 mph SE5.0 kmh SE 5.4 mph8.7 kmh 29.91 in1012.9 mb 0.00 in0.0 mm 0.00 in0.0 mm 0.06 in1.5 mm
11:10 PM 79.9°F26.6°C 72.8°F22.7°C 79% 2.2 mph SE3.5 kmh SE 5.4 mph8.7 kmh 29.90 in1012.5 mb 0.00 in0.0 mm 0.00 in0.0 mm 0.06 in1.5 mm
11:15 PM 80.1°F26.7°C 73.0°F22.8°C 79% 2.2 mph SE3.5 kmh SE 5.4 mph8.7 kmh 29.91 in1012.9 mb 0.00 in0.0 mm 0.00 in0.0 mm 0.06 in1.5 mm
11:20 PM 80.1°F26.7°C 73.0°F22.8°C 79% 1.6 mph SE2.6 kmh SE 5.4 mph8.7 kmh 29.91 in1012.9 mb 0.00 in0.0 mm 0.00 in0.0 mm 0.06 in1.5 mm
11:25 PM 79.7°F26.5°C 72.7°F22.6°C 79% 1.6 mph SE2.6 kmh SE 3.8 mph6.1 kmh 29.91 in1012.9 mb 0.00 in0.0 mm 0.00 in0.0 mm 0.06 in1.5 mm
11:30 PM 79.5°F26.4°C 72.9°F22.7°C 80% 2.2 mph ESE3.5 kmh ESE 4.5 mph7.2 kmh 29.91 in1012.9 mb 0.00 in0.0 mm 0.00 in0.0 mm 0.06 in1.5 mm
11:35 PM 79.3°F26.3°C 72.7°F22.6°C 80% 1.6 mph SE2.6 kmh SE 4.5 mph7.2 kmh 29.92 in1013.2 mb 0.00 in0.0 mm 0.00 in0.0 mm 0.06 in1.5 mm
11:40 PM 79.3°F26.3°C 72.7°F22.6°C 80% 1.6 mph SE2.6 kmh SE 4.5 mph7.2 kmh 29.93 in1013.5 mb 0.00 in0.0 mm 0.00 in0.0 mm 0.06 in1.5 mm
11:45 PM 79.3°F26.3°C 72.7°F22.6°C 80% 2.2 mph SE3.5 kmh SE 4.5 mph7.2 kmh 29.92 in1013.2 mb 0.00 in0.0 mm 0.00 in0.0 mm 0.06 in1.5 mm
11:50 PM 79.3°F26.3°C 72.7°F22.6°C 80% 3.8 mph SSE6.1 kmh SSE 6.0 mph9.7 kmh 29.93 in1013.5 mb 0.00 in0.0 mm 0.00 in0.0 mm 0.06 in1.5 mm
11:55 PM 79.2°F26.2°C 72.5°F22.5°C 80% 3.1 mph S5.0 kmh S 6.0 mph9.7 kmh 29.93 in1013.5 mb 0.00 in0.0 mm 0.00 in0.0 mm 0.06 in1.5 mm